sensor_id;sensor_type;location;lat;lon;timestamp;P1;durP1;ratioP1;P2;durP2;ratioP2
29938;SDS011;16799;50.844;5.304;2023-07-08T00:02:11;7.30;;;5.60;;
29938;SDS011;16799;50.844;5.304;2023-07-08T00:04:38;5.00;;;4.60;;
29938;SDS011;16799;50.844;5.304;2023-07-08T00:07:05;6.83;;;6.10;;
29938;SDS011;16799;50.844;5.304;2023-07-08T00:09:35;6.77;;;5.40;;
29938;SDS011;16799;50.844;5.304;2023-07-08T00:12:01;7.00;;;5.80;;
29938;SDS011;16799;50.844;5.304;2023-07-08T00:14:29;17.63;;;5.90;;
29938;SDS011;16799;50.844;5.304;2023-07-08T00:16:54;6.40;;;5.80;;
29938;SDS011;16799;50.844;5.304;2023-07-08T00:19:20;11.40;;;6.00;;
29938;SDS011;16799;50.844;5.304;2023-07-08T00:21:48;9.37;;;5.87;;
29938;SDS011;16799;50.844;5.304;2023-07-08T00:24:16;8.20;;;5.30;;
29938;SDS011;16799;50.844;5.304;2023-07-08T00:26:42;9.83;;;5.23;;
29938;SDS011;16799;50.844;5.304;2023-07-08T00:29:10;7.63;;;5.57;;
29938;SDS011;16799;50.844;5.304;2023-07-08T00:31:37;7.10;;;4.67;;
29938;SDS011;16799;50.844;5.304;2023-07-08T00:34:02;6.57;;;5.23;;
29938;SDS011;16799;50.844;5.304;2023-07-08T00:36:28;10.23;;;4.60;;
29938;SDS011;16799;50.844;5.304;2023-07-08T00:38:55;7.60;;;5.57;;
29938;SDS011;16799;50.844;5.304;2023-07-08T00:44:03;6.40;;;5.17;;
29938;SDS011;16799;50.844;5.304;2023-07-08T00:51:32;10.87;;;5.03;;
29938;SDS011;16799;50.844;5.304;2023-07-08T00:54:04;5.00;;;4.50;;
29938;SDS011;16799;50.844;5.304;2023-07-08T00:56:50;4.63;;;4.23;;
29938;SDS011;16799;50.844;5.304;2023-07-08T00:59:25;6.23;;;5.70;;
29938;SDS011;16799;50.844;5.304;2023-07-08T01:01:53;6.33;;;5.70;;
29938;SDS011;16799;50.844;5.304;2023-07-08T01:04:24;6.67;;;6.07;;
29938;SDS011;16799;50.844;5.304;2023-07-08T01:06:55;6.73;;;5.80;;
29938;SDS011;16799;50.844;5.304;2023-07-08T01:09:24;6.27;;;5.77;;
29938;SDS011;16799;50.844;5.304;2023-07-08T01:12:01;7.83;;;5.03;;
29938;SDS011;16799;50.844;5.304;2023-07-08T01:14:32;6.03;;;5.43;;
29938;SDS011;16799;50.844;5.304;2023-07-08T01:17:01;8.10;;;6.73;;
29938;SDS011;16799;50.844;5.304;2023-07-08T01:19:27;8.80;;;6.23;;
29938;SDS011;16799;50.844;5.304;2023-07-08T01:21:58;6.80;;;5.80;;
29938;SDS011;16799;50.844;5.304;2023-07-08T01:24:25;10.83;;;6.80;;
29938;SDS011;16799;50.844;5.304;2023-07-08T01:26:54;10.20;;;6.60;;
29938;SDS011;16799;50.844;5.304;2023-07-08T01:29:21;9.10;;;5.67;;
29938;SDS011;16799;50.844;5.304;2023-07-08T01:31:47;13.60;;;6.20;;
29938;SDS011;16799;50.844;5.304;2023-07-08T01:34:17;7.67;;;5.73;;
29938;SDS011;16799;50.844;5.304;2023-07-08T01:36:45;7.10;;;6.40;;
29938;SDS011;16799;50.844;5.304;2023-07-08T01:39:14;9.00;;;6.50;;
29938;SDS011;16799;50.844;5.304;2023-07-08T01:41:43;11.10;;;5.80;;
29938;SDS011;16799;50.844;5.304;2023-07-08T01:44:26;6.07;;;5.47;;
29938;SDS011;16799;50.844;5.304;2023-07-08T01:46:52;7.73;;;5.20;;
29938;SDS011;16799;50.844;5.304;2023-07-08T01:49:20;5.90;;;5.40;;
29938;SDS011;16799;50.844;5.304;2023-07-08T01:51:47;11.93;;;5.83;;
29938;SDS011;16799;50.844;5.304;2023-07-08T01:54:14;6.10;;;5.50;;
29938;SDS011;16799;50.844;5.304;2023-07-08T01:56:40;8.30;;;6.87;;
29938;SDS011;16799;50.844;5.304;2023-07-08T01:59:05;10.13;;;5.80;;
29938;SDS011;16799;50.844;5.304;2023-07-08T02:01:31;7.93;;;6.23;;
29938;SDS011;16799;50.844;5.304;2023-07-08T02:03:56;7.53;;;6.63;;
29938;SDS011;16799;50.844;5.304;2023-07-08T02:06:22;8.07;;;7.10;;
29938;SDS011;16799;50.844;5.304;2023-07-08T02:08:48;6.20;;;5.60;;
29938;SDS011;16799;50.844;5.304;2023-07-08T02:11:16;6.60;;;5.60;;
29938;SDS011;16799;50.844;5.304;2023-07-08T02:13:42;9.13;;;7.40;;
29938;SDS011;16799;50.844;5.304;2023-07-08T02:16:07;6.57;;;5.97;;
29938;SDS011;16799;50.844;5.304;2023-07-08T02:18:33;11.00;;;7.03;;
29938;SDS011;16799;50.844;5.304;2023-07-08T02:20:58;7.63;;;6.57;;
29938;SDS011;16799;50.844;5.304;2023-07-08T02:23:25;10.27;;;6.40;;
29938;SDS011;16799;50.844;5.304;2023-07-08T02:25:51;7.93;;;6.63;;
29938;SDS011;16799;50.844;5.304;2023-07-08T02:28:17;7.10;;;4.90;;
29938;SDS011;16799;50.844;5.304;2023-07-08T02:30:43;8.13;;;5.40;;
29938;SDS011;16799;50.844;5.304;2023-07-08T02:33:11;13.17;;;6.70;;
29938;SDS011;16799;50.844;5.304;2023-07-08T02:35:37;8.80;;;5.20;;
29938;SDS011;16799;50.844;5.304;2023-07-08T02:38:02;7.07;;;6.47;;
29938;SDS011;16799;50.844;5.304;2023-07-08T02:40:28;7.90;;;5.37;;
29938;SDS011;16799;50.844;5.304;2023-07-08T02:42:54;6.70;;;6.10;;
29938;SDS011;16799;50.844;5.304;2023-07-08T02:45:20;7.37;;;6.67;;
29938;SDS011;16799;50.844;5.304;2023-07-08T02:47:45;6.63;;;5.20;;
29938;SDS011;16799;50.844;5.304;2023-07-08T02:50:11;12.37;;;5.80;;
29938;SDS011;16799;50.844;5.304;2023-07-08T02:52:37;7.77;;;6.83;;
29938;SDS011;16799;50.844;5.304;2023-07-08T02:55:03;8.63;;;5.60;;
29938;SDS011;16799;50.844;5.304;2023-07-08T02:57:29;7.07;;;6.37;;
29938;SDS011;16799;50.844;5.304;2023-07-08T02:59:55;12.27;;;7.30;;
29938;SDS011;16799;50.844;5.304;2023-07-08T03:02:21;8.57;;;6.60;;
29938;SDS011;16799;50.844;5.304;2023-07-08T03:04:47;8.40;;;6.30;;
29938;SDS011;16799;50.844;5.304;2023-07-08T03:07:15;10.93;;;6.83;;
29938;SDS011;16799;50.844;5.304;2023-07-08T03:09:41;9.07;;;6.60;;
29938;SDS011;16799;50.844;5.304;2023-07-08T03:12:08;10.13;;;6.90;;
29938;SDS011;16799;50.844;5.304;2023-07-08T03:14:35;7.20;;;6.50;;
29938;SDS011;16799;50.844;5.304;2023-07-08T03:17:01;5.90;;;5.20;;
29938;SDS011;16799;50.844;5.304;2023-07-08T03:19:27;10.10;;;7.10;;
29938;SDS011;16799;50.844;5.304;2023-07-08T03:21:53;10.23;;;6.50;;
29938;SDS011;16799;50.844;5.304;2023-07-08T03:24:19;6.93;;;6.23;;
29938;SDS011;16799;50.844;5.304;2023-07-08T03:26:45;6.93;;;6.23;;
29938;SDS011;16799;50.844;5.304;2023-07-08T03:29:13;8.83;;;6.13;;
29938;SDS011;16799;50.844;5.304;2023-07-08T03:31:40;13.73;;;7.23;;
29938;SDS011;16799;50.844;5.304;2023-07-08T03:34:07;7.57;;;5.70;;
29938;SDS011;16799;50.844;5.304;2023-07-08T03:36:43;11.37;;;7.10;;
29938;SDS011;16799;50.844;5.304;2023-07-08T03:39:13;6.87;;;6.23;;
29938;SDS011;16799;50.844;5.304;2023-07-08T03:41:40;7.27;;;6.50;;
29938;SDS011;16799;50.844;5.304;2023-07-08T03:44:06;8.47;;;6.20;;
29938;SDS011;16799;50.844;5.304;2023-07-08T03:46:32;7.77;;;7.17;;
29938;SDS011;16799;50.844;5.304;2023-07-08T03:48:57;7.27;;;6.70;;
29938;SDS011;16799;50.844;5.304;2023-07-08T03:51:27;8.10;;;7.30;;
29938;SDS011;16799;50.844;5.304;2023-07-08T03:53:55;22.90;;;6.53;;
29938;SDS011;16799;50.844;5.304;2023-07-08T03:56:21;8.07;;;6.30;;
29938;SDS011;16799;50.844;5.304;2023-07-08T03:58:47;15.13;;;6.60;;
29938;SDS011;16799;50.844;5.304;2023-07-08T04:01:16;7.90;;;6.10;;
29938;SDS011;16799;50.844;5.304;2023-07-08T04:03:44;7.70;;;5.87;;
29938;SDS011;16799;50.844;5.304;2023-07-08T04:06:10;8.70;;;6.70;;
29938;SDS011;16799;50.844;5.304;2023-07-08T04:08:35;15.30;;;7.67;;
29938;SDS011;16799;50.844;5.304;2023-07-08T04:11:01;8.10;;;6.73;;
29938;SDS011;16799;50.844;5.304;2023-07-08T04:13:27;9.63;;;6.87;;
29938;SDS011;16799;50.844;5.304;2023-07-08T04:15:54;6.83;;;6.33;;
29938;SDS011;16799;50.844;5.304;2023-07-08T04:18:23;8.00;;;7.37;;
29938;SDS011;16799;50.844;5.304;2023-07-08T04:20:48;7.93;;;6.03;;
29938;SDS011;16799;50.844;5.304;2023-07-08T04:23:17;12.80;;;7.23;;
29938;SDS011;16799;50.844;5.304;2023-07-08T04:25:44;10.07;;;6.00;;
29938;SDS011;16799;50.844;5.304;2023-07-08T04:28:10;7.60;;;6.57;;
29938;SDS011;16799;50.844;5.304;2023-07-08T04:30:36;8.80;;;6.70;;
29938;SDS011;16799;50.844;5.304;2023-07-08T04:33:06;11.70;;;6.80;;
29938;SDS011;16799;50.844;5.304;2023-07-08T04:35:33;10.60;;;6.73;;
29938;SDS011;16799;50.844;5.304;2023-07-08T04:38:03;10.60;;;7.77;;
29938;SDS011;16799;50.844;5.304;2023-07-08T04:40:34;9.93;;;7.87;;
29938;SDS011;16799;50.844;5.304;2023-07-08T04:43:04;10.37;;;7.13;;
29938;SDS011;16799;50.844;5.304;2023-07-08T04:45:35;7.03;;;6.37;;
29938;SDS011;16799;50.844;5.304;2023-07-08T04:48:02;7.50;;;6.90;;
29938;SDS011;16799;50.844;5.304;2023-07-08T04:50:37;8.97;;;7.50;;
29938;SDS011;16799;50.844;5.304;2023-07-08T04:53:06;10.17;;;7.07;;
29938;SDS011;16799;50.844;5.304;2023-07-08T04:55:33;10.90;;;7.60;;
29938;SDS011;16799;50.844;5.304;2023-07-08T04:58:00;8.20;;;7.40;;
29938;SDS011;16799;50.844;5.304;2023-07-08T05:00:27;7.83;;;7.03;;
29938;SDS011;16799;50.844;5.304;2023-07-08T05:02:53;9.20;;;7.93;;
29938;SDS011;16799;50.844;5.304;2023-07-08T05:05:19;9.17;;;7.10;;
29938;SDS011;16799;50.844;5.304;2023-07-08T05:07:45;7.23;;;6.67;;
29938;SDS011;16799;50.844;5.304;2023-07-08T05:10:11;10.73;;;7.53;;
29938;SDS011;16799;50.844;5.304;2023-07-08T05:12:36;10.63;;;6.53;;
29938;SDS011;16799;50.844;5.304;2023-07-08T05:15:03;12.17;;;6.70;;
29938;SDS011;16799;50.844;5.304;2023-07-08T05:17:29;10.90;;;7.53;;
29938;SDS011;16799;50.844;5.304;2023-07-08T05:19:55;8.33;;;7.43;;
29938;SDS011;16799;50.844;5.304;2023-07-08T05:22:22;11.97;;;8.10;;
29938;SDS011;16799;50.844;5.304;2023-07-08T05:24:51;11.93;;;9.00;;
29938;SDS011;16799;50.844;5.304;2023-07-08T05:27:18;8.33;;;7.50;;
29938;SDS011;16799;50.844;5.304;2023-07-08T05:29:45;14.30;;;9.30;;
29938;SDS011;16799;50.844;5.304;2023-07-08T05:32:11;11.10;;;8.80;;
29938;SDS011;16799;50.844;5.304;2023-07-08T05:34:37;7.60;;;6.83;;
29938;SDS011;16799;50.844;5.304;2023-07-08T05:37:02;12.60;;;8.20;;
29938;SDS011;16799;50.844;5.304;2023-07-08T05:39:31;8.23;;;7.43;;
29938;SDS011;16799;50.844;5.304;2023-07-08T05:41:57;8.83;;;7.93;;
29938;SDS011;16799;50.844;5.304;2023-07-08T05:44:23;11.03;;;7.80;;
29938;SDS011;16799;50.844;5.304;2023-07-08T05:46:49;11.50;;;7.40;;
29938;SDS011;16799;50.844;5.304;2023-07-08T05:49:15;11.83;;;7.40;;
29938;SDS011;16799;50.844;5.304;2023-07-08T05:51:42;19.87;;;10.37;;
29938;SDS011;16799;50.844;5.304;2023-07-08T05:54:09;13.30;;;7.77;;
29938;SDS011;16799;50.844;5.304;2023-07-08T05:56:34;11.33;;;8.23;;
29938;SDS011;16799;50.844;5.304;2023-07-08T05:59:00;17.03;;;8.33;;
29938;SDS011;16799;50.844;5.304;2023-07-08T06:01:26;17.03;;;9.27;;
29938;SDS011;16799;50.844;5.304;2023-07-08T06:03:51;9.90;;;8.33;;
29938;SDS011;16799;50.844;5.304;2023-07-08T06:06:17;10.77;;;8.03;;
29938;SDS011;16799;50.844;5.304;2023-07-08T06:08:43;10.23;;;7.77;;
29938;SDS011;16799;50.844;5.304;2023-07-08T06:11:09;9.13;;;8.23;;
29938;SDS011;16799;50.844;5.304;2023-07-08T06:13:34;13.53;;;8.57;;
29938;SDS011;16799;50.844;5.304;2023-07-08T06:16:00;10.33;;;9.23;;
29938;SDS011;16799;50.844;5.304;2023-07-08T06:18:26;14.23;;;10.13;;
29938;SDS011;16799;50.844;5.304;2023-07-08T06:20:52;12.60;;;9.67;;
29938;SDS011;16799;50.844;5.304;2023-07-08T06:23:21;12.80;;;8.27;;
29938;SDS011;16799;50.844;5.304;2023-07-08T06:25:47;15.33;;;9.27;;
29938;SDS011;16799;50.844;5.304;2023-07-08T06:28:13;10.53;;;8.50;;
29938;SDS011;16799;50.844;5.304;2023-07-08T06:30:39;12.33;;;9.10;;
29938;SDS011;16799;50.844;5.304;2023-07-08T06:33:05;11.10;;;8.33;;
29938;SDS011;16799;50.844;5.304;2023-07-08T06:35:30;12.30;;;10.10;;
29938;SDS011;16799;50.844;5.304;2023-07-08T06:37:56;10.00;;;9.00;;
29938;SDS011;16799;50.844;5.304;2023-07-08T06:40:22;12.03;;;7.23;;
29938;SDS011;16799;50.844;5.304;2023-07-08T06:42:47;10.37;;;8.20;;
29938;SDS011;16799;50.844;5.304;2023-07-08T06:45:13;10.97;;;8.57;;
29938;SDS011;16799;50.844;5.304;2023-07-08T06:47:39;15.53;;;8.20;;
29938;SDS011;16799;50.844;5.304;2023-07-08T06:50:04;16.00;;;9.80;;
29938;SDS011;16799;50.844;5.304;2023-07-08T06:52:31;11.67;;;9.30;;
29938;SDS011;16799;50.844;5.304;2023-07-08T06:55:03;13.40;;;8.93;;
29938;SDS011;16799;50.844;5.304;2023-07-08T06:57:31;11.10;;;9.07;;
29938;SDS011;16799;50.844;5.304;2023-07-08T06:59:57;9.20;;;8.00;;
29938;SDS011;16799;50.844;5.304;2023-07-08T07:02:23;10.83;;;8.67;;
29938;SDS011;16799;50.844;5.304;2023-07-08T07:04:48;8.80;;;8.00;;
29938;SDS011;16799;50.844;5.304;2023-07-08T07:07:14;12.33;;;8.20;;
29938;SDS011;16799;50.844;5.304;2023-07-08T07:09:40;9.17;;;7.43;;
29938;SDS011;16799;50.844;5.304;2023-07-08T07:12:06;8.77;;;7.73;;
29938;SDS011;16799;50.844;5.304;2023-07-08T07:14:32;10.10;;;8.17;;
29938;SDS011;16799;50.844;5.304;2023-07-08T07:16:59;10.60;;;9.03;;
29938;SDS011;16799;50.844;5.304;2023-07-08T07:19:24;13.20;;;9.47;;
29938;SDS011;16799;50.844;5.304;2023-07-08T07:21:50;12.60;;;9.67;;
29938;SDS011;16799;50.844;5.304;2023-07-08T07:24:16;11.00;;;7.93;;
29938;SDS011;16799;50.844;5.304;2023-07-08T07:26:43;12.53;;;9.07;;
29938;SDS011;16799;50.844;5.304;2023-07-08T07:29:08;12.93;;;8.80;;
29938;SDS011;16799;50.844;5.304;2023-07-08T07:31:34;13.77;;;9.23;;
29938;SDS011;16799;50.844;5.304;2023-07-08T07:34:00;13.07;;;9.63;;
29938;SDS011;16799;50.844;5.304;2023-07-08T07:36:26;10.90;;;8.87;;
29938;SDS011;16799;50.844;5.304;2023-07-08T07:38:53;9.53;;;8.47;;
29938;SDS011;16799;50.844;5.304;2023-07-08T07:41:19;11.27;;;9.13;;
29938;SDS011;16799;50.844;5.304;2023-07-08T07:43:45;9.40;;;8.43;;
29938;SDS011;16799;50.844;5.304;2023-07-08T07:46:11;9.23;;;8.33;;
29938;SDS011;16799;50.844;5.304;2023-07-08T07:48:37;12.07;;;9.43;;
29938;SDS011;16799;50.844;5.304;2023-07-08T07:51:04;8.67;;;7.80;;
29938;SDS011;16799;50.844;5.304;2023-07-08T07:53:30;9.20;;;8.30;;
29938;SDS011;16799;50.844;5.304;2023-07-08T07:55:59;11.93;;;9.57;;
29938;SDS011;16799;50.844;5.304;2023-07-08T07:58:26;9.73;;;8.73;;
29938;SDS011;16799;50.844;5.304;2023-07-08T08:00:52;21.53;;;9.07;;
29938;SDS011;16799;50.844;5.304;2023-07-08T08:03:18;9.17;;;8.23;;
29938;SDS011;16799;50.844;5.304;2023-07-08T08:05:44;11.70;;;8.50;;
29938;SDS011;16799;50.844;5.304;2023-07-08T08:08:10;11.73;;;8.63;;
29938;SDS011;16799;50.844;5.304;2023-07-08T08:10:36;9.90;;;8.33;;
29938;SDS011;16799;50.844;5.304;2023-07-08T08:13:01;16.80;;;8.40;;
29938;SDS011;16799;50.844;5.304;2023-07-08T08:15:27;14.23;;;10.00;;
29938;SDS011;16799;50.844;5.304;2023-07-08T08:17:53;8.87;;;7.97;;
29938;SDS011;16799;50.844;5.304;2023-07-08T08:20:19;9.00;;;7.60;;
29938;SDS011;16799;50.844;5.304;2023-07-08T08:22:47;8.87;;;8.07;;
29938;SDS011;16799;50.844;5.304;2023-07-08T08:25:14;8.90;;;7.90;;
29938;SDS011;16799;50.844;5.304;2023-07-08T08:27:40;11.43;;;9.70;;
29938;SDS011;16799;50.844;5.304;2023-07-08T08:30:06;9.03;;;8.13;;
29938;SDS011;16799;50.844;5.304;2023-07-08T08:32:32;13.70;;;9.03;;
29938;SDS011;16799;50.844;5.304;2023-07-08T08:34:58;12.17;;;10.10;;
29938;SDS011;16799;50.844;5.304;2023-07-08T08:37:24;13.80;;;9.30;;
29938;SDS011;16799;50.844;5.304;2023-07-08T08:39:49;9.17;;;8.27;;
29938;SDS011;16799;50.844;5.304;2023-07-08T08:42:39;11.90;;;8.77;;
29938;SDS011;16799;50.844;5.304;2023-07-08T08:45:09;12.00;;;9.10;;
29938;SDS011;16799;50.844;5.304;2023-07-08T08:47:43;9.33;;;8.33;;
29938;SDS011;16799;50.844;5.304;2023-07-08T08:53:02;9.40;;;8.03;;
29938;SDS011;16799;50.844;5.304;2023-07-08T08:55:31;10.60;;;9.53;;
29938;SDS011;16799;50.844;5.304;2023-07-08T09:00:55;11.57;;;9.40;;
29938;SDS011;16799;50.844;5.304;2023-07-08T09:03:38;11.77;;;8.80;;
29938;SDS011;16799;50.844;5.304;2023-07-08T09:08:51;14.43;;;9.50;;
29938;SDS011;16799;50.844;5.304;2023-07-08T09:14:24;10.00;;;7.97;;
29938;SDS011;16799;50.844;5.304;2023-07-08T09:16:56;10.43;;;8.20;;
29938;SDS011;16799;50.844;5.304;2023-07-08T09:19:42;10.13;;;7.83;;
29938;SDS011;16799;50.844;5.304;2023-07-08T09:22:28;11.50;;;9.67;;
29938;SDS011;16799;50.844;5.304;2023-07-08T09:25:15;8.60;;;7.70;;
29938;SDS011;16799;50.844;5.304;2023-07-08T09:27:48;12.67;;;10.10;;
29938;SDS011;16799;50.844;5.304;2023-07-08T09:30:16;15.53;;;9.30;;
29938;SDS011;16799;50.844;5.304;2023-07-08T09:32:45;11.63;;;8.40;;
29938;SDS011;16799;50.844;5.304;2023-07-08T09:35:25;8.93;;;8.13;;
29938;SDS011;16799;50.844;5.304;2023-07-08T09:37:53;9.60;;;8.43;;
29938;SDS011;16799;50.844;5.304;2023-07-08T09:40:29;8.60;;;7.33;;
29938;SDS011;16799;50.844;5.304;2023-07-08T09:43:04;11.67;;;8.80;;
29938;SDS011;16799;50.844;5.304;2023-07-08T09:45:49;8.77;;;8.03;;
29938;SDS011;16799;50.844;5.304;2023-07-08T09:48:16;9.23;;;8.23;;
29938;SDS011;16799;50.844;5.304;2023-07-08T09:50:51;9.73;;;8.57;;
29938;SDS011;16799;50.844;5.304;2023-07-08T09:53:17;8.70;;;7.93;;
29938;SDS011;16799;50.844;5.304;2023-07-08T09:55:43;8.70;;;7.93;;
29938;SDS011;16799;50.844;5.304;2023-07-08T10:01:15;22.80;;;7.80;;
29938;SDS011;16799;50.844;5.304;2023-07-08T10:03:48;11.30;;;8.27;;
29938;SDS011;16799;50.844;5.304;2023-07-08T10:06:16;10.00;;;8.67;;
29938;SDS011;16799;50.844;5.304;2023-07-08T10:08:47;15.67;;;9.23;;
29938;SDS011;16799;50.844;5.304;2023-07-08T10:11:28;7.97;;;7.30;;
29938;SDS011;16799;50.844;5.304;2023-07-08T10:14:01;8.90;;;8.07;;
29938;SDS011;16799;50.844;5.304;2023-07-08T10:16:32;8.93;;;7.97;;
29938;SDS011;16799;50.844;5.304;2023-07-08T10:18:59;10.80;;;8.80;;
29938;SDS011;16799;50.844;5.304;2023-07-08T10:21:34;7.90;;;7.30;;
29938;SDS011;16799;50.844;5.304;2023-07-08T10:24:30;9.97;;;8.47;;
29938;SDS011;16799;50.844;5.304;2023-07-08T10:27:08;8.60;;;7.90;;
29938;SDS011;16799;50.844;5.304;2023-07-08T10:32:49;8.70;;;7.90;;
29938;SDS011;16799;50.844;5.304;2023-07-08T10:35:40;10.37;;;7.40;;
29938;SDS011;16799;50.844;5.304;2023-07-08T10:38:30;9.23;;;8.33;;
29938;SDS011;16799;50.844;5.304;2023-07-08T10:41:00;8.93;;;8.13;;
29938;SDS011;16799;50.844;5.304;2023-07-08T10:43:43;8.73;;;8.00;;
29938;SDS011;16799;50.844;5.304;2023-07-08T10:46:24;14.60;;;8.10;;
29938;SDS011;16799;50.844;5.304;2023-07-08T10:51:41;13.30;;;7.90;;
29938;SDS011;16799;50.844;5.304;2023-07-08T11:13:38;7.23;;;6.53;;
29938;SDS011;16799;50.844;5.304;2023-07-08T11:16:12;9.43;;;6.90;;
29938;SDS011;16799;50.844;5.304;2023-07-08T11:18:42;7.07;;;6.37;;
29938;SDS011;16799;50.844;5.304;2023-07-08T11:21:29;6.17;;;5.70;;
29938;SDS011;16799;50.844;5.304;2023-07-08T11:24:04;6.63;;;6.10;;
29938;SDS011;16799;50.844;5.304;2023-07-08T11:27:27;6.70;;;6.20;;
29938;SDS011;16799;50.844;5.304;2023-07-08T11:29:45;7.30;;;6.60;;
29938;SDS011;16799;50.844;5.304;2023-07-08T11:32:16;7.10;;;6.50;;
29938;SDS011;16799;50.844;5.304;2023-07-08T11:34:44;6.60;;;6.00;;
29938;SDS011;16799;50.844;5.304;2023-07-08T11:37:13;12.47;;;7.80;;
29938;SDS011;16799;50.844;5.304;2023-07-08T11:39:44;6.78;;;6.25;;
29938;SDS011;16799;50.844;5.304;2023-07-08T11:44:54;7.78;;;6.38;;
29938;SDS011;16799;50.844;5.304;2023-07-08T11:47:24;6.43;;;6.03;;
29938;SDS011;16799;50.844;5.304;2023-07-08T11:49:56;5.93;;;5.47;;
29938;SDS011;16799;50.844;5.304;2023-07-08T11:52:22;6.60;;;6.20;;
29938;SDS011;16799;50.844;5.304;2023-07-08T11:54:54;6.38;;;5.97;;
29938;SDS011;16799;50.844;5.304;2023-07-08T11:57:40;6.18;;;5.75;;
29938;SDS011;16799;50.844;5.304;2023-07-08T12:00:41;6.37;;;6.00;;
29938;SDS011;16799;50.844;5.304;2023-07-08T12:03:04;6.70;;;5.72;;
29938;SDS011;16799;50.844;5.304;2023-07-08T12:05:44;6.20;;;5.90;;
29938;SDS011;16799;50.844;5.304;2023-07-08T12:08:13;6.05;;;5.65;;
29938;SDS011;16799;50.844;5.304;2023-07-08T12:10:47;6.22;;;5.43;;
29938;SDS011;16799;50.844;5.304;2023-07-08T12:13:14;5.60;;;5.20;;
29938;SDS011;16799;50.844;5.304;2023-07-08T12:15:42;12.05;;;5.82;;
29938;SDS011;16799;50.844;5.304;2023-07-08T12:20:35;5.27;;;4.80;;
29938;SDS011;16799;50.844;5.304;2023-07-08T12:23:04;6.90;;;5.00;;
29938;SDS011;16799;50.844;5.304;2023-07-08T12:25:37;6.90;;;6.40;;
29938;SDS011;16799;50.844;5.304;2023-07-08T12:28:03;6.50;;;6.10;;
29938;SDS011;16799;50.844;5.304;2023-07-08T12:30:29;5.80;;;5.40;;
29938;SDS011;16799;50.844;5.304;2023-07-08T12:32:57;5.80;;;5.40;;
29938;SDS011;16799;50.844;5.304;2023-07-08T12:35:31;6.22;;;5.63;;
29938;SDS011;16799;50.844;5.304;2023-07-08T12:38:15;6.55;;;5.97;;
29938;SDS011;16799;50.844;5.304;2023-07-08T12:40:46;6.32;;;5.65;;
29938;SDS011;16799;50.844;5.304;2023-07-08T12:43:12;5.03;;;4.72;;
29938;SDS011;16799;50.844;5.304;2023-07-08T12:45:39;4.72;;;4.43;;
29938;SDS011;16799;50.844;5.304;2023-07-08T12:48:11;9.35;;;5.93;;
29938;SDS011;16799;50.844;5.304;2023-07-08T12:50:36;5.53;;;4.40;;
29938;SDS011;16799;50.844;5.304;2023-07-08T12:53:04;6.03;;;5.27;;
29938;SDS011;16799;50.844;5.304;2023-07-08T12:55:34;11.43;;;5.63;;
29938;SDS011;16799;50.844;5.304;2023-07-08T12:58:04;6.13;;;5.60;;
29938;SDS011;16799;50.844;5.304;2023-07-08T13:00:31;7.23;;;6.57;;
29938;SDS011;16799;50.844;5.304;2023-07-08T13:05:37;7.30;;;6.00;;
29938;SDS011;16799;50.844;5.304;2023-07-08T13:08:03;9.23;;;6.43;;
29938;SDS011;16799;50.844;5.304;2023-07-08T13:10:29;6.97;;;6.10;;
29938;SDS011;16799;50.844;5.304;2023-07-08T13:13:00;9.43;;;7.33;;
29938;SDS011;16799;50.844;5.304;2023-07-08T13:15:33;8.00;;;7.13;;
29938;SDS011;16799;50.844;5.304;2023-07-08T13:18:01;6.87;;;6.23;;
29938;SDS011;16799;50.844;5.304;2023-07-08T13:20:27;6.90;;;6.30;;
29938;SDS011;16799;50.844;5.304;2023-07-08T13:22:55;6.93;;;6.33;;
29938;SDS011;16799;50.844;5.304;2023-07-08T13:25:31;7.40;;;6.77;;
29938;SDS011;16799;50.844;5.304;2023-07-08T13:30:26;7.03;;;5.80;;
29938;SDS011;16799;50.844;5.304;2023-07-08T13:32:54;7.20;;;6.57;;
29938;SDS011;16799;50.844;5.304;2023-07-08T13:35:24;7.00;;;6.40;;
29938;SDS011;16799;50.844;5.304;2023-07-08T13:37:52;15.90;;;7.17;;
29938;SDS011;16799;50.844;5.304;2023-07-08T13:40:18;7.80;;;7.00;;
29938;SDS011;16799;50.844;5.304;2023-07-08T13:42:48;8.50;;;7.70;;
29938;SDS011;16799;50.844;5.304;2023-07-08T13:45:19;5.93;;;5.37;;
29938;SDS011;16799;50.844;5.304;2023-07-08T13:48:08;7.20;;;6.40;;
29938;SDS011;16799;50.844;5.304;2023-07-08T13:53:27;8.43;;;6.10;;
29938;SDS011;16799;50.844;5.304;2023-07-08T13:56:17;10.13;;;5.77;;
29938;SDS011;16799;50.844;5.304;2023-07-08T13:58:46;8.73;;;6.40;;
29938;SDS011;16799;50.844;5.304;2023-07-08T14:01:18;15.77;;;6.23;;
29938;SDS011;16799;50.844;5.304;2023-07-08T14:03:46;10.50;;;6.53;;
29938;SDS011;16799;50.844;5.304;2023-07-08T14:06:19;12.83;;;6.20;;
29938;SDS011;16799;50.844;5.304;2023-07-08T14:08:47;6.37;;;4.70;;
29938;SDS011;16799;50.844;5.304;2023-07-08T14:11:13;10.07;;;5.37;;
29938;SDS011;16799;50.844;5.304;2023-07-08T14:13:39;10.97;;;6.13;;
29938;SDS011;16799;50.844;5.304;2023-07-08T14:16:08;6.23;;;5.73;;
29938;SDS011;16799;50.844;5.304;2023-07-08T14:18:46;9.37;;;4.30;;
29938;SDS011;16799;50.844;5.304;2023-07-08T14:21:12;18.40;;;5.90;;
29938;SDS011;16799;50.844;5.304;2023-07-08T14:23:38;7.53;;;6.73;;
29938;SDS011;16799;50.844;5.304;2023-07-08T14:26:07;6.90;;;4.67;;
29938;SDS011;16799;50.844;5.304;2023-07-08T14:28:35;10.40;;;6.77;;
29938;SDS011;16799;50.844;5.304;2023-07-08T14:31:01;8.77;;;5.43;;
29938;SDS011;16799;50.844;5.304;2023-07-08T14:33:27;5.87;;;5.10;;
29938;SDS011;16799;50.844;5.304;2023-07-08T14:35:53;5.80;;;5.30;;
29938;SDS011;16799;50.844;5.304;2023-07-08T14:38:19;7.30;;;4.60;;
29938;SDS011;16799;50.844;5.304;2023-07-08T14:40:44;5.67;;;5.20;;
29938;SDS011;16799;50.844;5.304;2023-07-08T14:43:13;6.63;;;4.77;;
29938;SDS011;16799;50.844;5.304;2023-07-08T14:45:46;8.33;;;5.80;;
29938;SDS011;16799;50.844;5.304;2023-07-08T14:48:15;6.13;;;4.90;;
29938;SDS011;16799;50.844;5.304;2023-07-08T14:50:40;4.60;;;4.30;;
29938;SDS011;16799;50.844;5.304;2023-07-08T14:53:06;6.77;;;6.00;;
29938;SDS011;16799;50.844;5.304;2023-07-08T14:55:32;5.07;;;4.67;;
29938;SDS011;16799;50.844;5.304;2023-07-08T14:57:59;6.00;;;5.40;;
29938;SDS011;16799;50.844;5.304;2023-07-08T15:00:25;5.93;;;5.43;;
29938;SDS011;16799;50.844;5.304;2023-07-08T15:02:51;5.30;;;4.90;;
29938;SDS011;16799;50.844;5.304;2023-07-08T15:05:24;6.37;;;5.20;;
29938;SDS011;16799;50.844;5.304;2023-07-08T15:07:53;7.60;;;5.47;;
29938;SDS011;16799;50.844;5.304;2023-07-08T15:10:20;14.83;;;5.40;;
29938;SDS011;16799;50.844;5.304;2023-07-08T15:12:48;5.13;;;4.67;;
29938;SDS011;16799;50.844;5.304;2023-07-08T15:15:20;7.73;;;5.60;;
29938;SDS011;16799;50.844;5.304;2023-07-08T15:17:55;11.40;;;4.53;;
29938;SDS011;16799;50.844;5.304;2023-07-08T15:20:27;4.20;;;3.80;;
29938;SDS011;16799;50.844;5.304;2023-07-08T15:22:53;5.50;;;5.00;;
29938;SDS011;16799;50.844;5.304;2023-07-08T15:25:19;4.03;;;3.70;;
29938;SDS011;16799;50.844;5.304;2023-07-08T15:27:46;3.97;;;3.77;;
29938;SDS011;16799;50.844;5.304;2023-07-08T15:30:25;5.00;;;4.60;;
29938;SDS011;16799;50.844;5.304;2023-07-08T15:32:52;4.13;;;3.80;;
29938;SDS011;16799;50.844;5.304;2023-07-08T15:35:21;3.93;;;3.67;;
29938;SDS011;16799;50.844;5.304;2023-07-08T15:37:57;4.57;;;3.50;;
29938;SDS011;16799;50.844;5.304;2023-07-08T15:40:24;10.03;;;5.20;;
29938;SDS011;16799;50.844;5.304;2023-07-08T15:42:54;11.27;;;7.40;;
29938;SDS011;16799;50.844;5.304;2023-07-08T15:45:28;3.53;;;3.33;;
29938;SDS011;16799;50.844;5.304;2023-07-08T15:47:57;5.10;;;3.70;;
29938;SDS011;16799;50.844;5.304;2023-07-08T15:50:23;3.65;;;3.33;;
29938;SDS011;16799;50.844;5.304;2023-07-08T15:52:51;3.60;;;3.40;;
29938;SDS011;16799;50.844;5.304;2023-07-08T15:55:20;5.88;;;3.58;;